sensor_id;sensor_type;location;lat;lon;timestamp;P1;P2;P0
77516;PMS7003;68414;53.946;27.634;2023-04-01T00:00:26;29.466667;26.683332;15.766666
77516;PMS7003;68414;53.946;27.634;2023-04-01T00:01:26;32.833332;28.900000;16.616667
77516;PMS7003;68414;53.946;27.634;2023-04-01T00:02:26;32.233334;27.750000;16.016666
77516;PMS7003;68414;53.946;27.634;2023-04-01T00:03:26;34.900002;30.816668;17.666666
77516;PMS7003;68414;53.946;27.634;2023-04-01T00:04:26;33.599998;29.750000;17.833334
77516;PMS7003;68414;53.946;27.634;2023-04-01T00:05:26;32.400002;29.266666;17.350000
77516;PMS7003;68414;53.946;27.634;2023-04-01T00:06:27;33.716667;30.316668;18.433332
77516;PMS7003;68414;53.946;27.634;2023-04-01T00:07:26;30.683332;28.600000;16.066668
77516;PMS7003;68414;53.946;27.634;2023-04-01T00:08:27;29.200001;26.683332;15.566667
77516;PMS7003;68414;53.946;27.634;2023-04-01T00:09:26;31.966667;29.700001;17.416666
77516;PMS7003;68414;53.946;27.634;2023-04-01T00:10:26;34.116665;30.483334;18.983334
77516;PMS7003;68414;53.946;27.634;2023-04-01T00:11:26;32.400002;29.350000;17.350000
77516;PMS7003;68414;53.946;27.634;2023-04-01T00:12:26;33.483334;29.916666;19.100000
77516;PMS7003;68414;53.946;27.634;2023-04-01T00:13:26;35.933334;31.049999;18.049999
77516;PMS7003;68414;53.946;27.634;2023-04-01T00:14:26;34.400002;30.966667;18.616667
77516;PMS7003;68414;53.946;27.634;2023-04-01T00:15:26;34.916668;30.500000;17.650000
77516;PMS7003;68414;53.946;27.634;2023-04-01T00:16:26;32.766666;29.483334;16.433332
77516;PMS7003;68414;53.946;27.634;2023-04-01T00:17:26;34.049999;29.716667;18.316668
77516;PMS7003;68414;53.946;27.634;2023-04-01T00:18:26;34.583332;30.866667;17.750000
77516;PMS7003;68414;53.946;27.634;2023-04-01T00:19:26;30.066668;28.266666;16.166666
77516;PMS7003;68414;53.946;27.634;2023-04-01T00:20:27;33.716667;29.983334;18.466667
77516;PMS7003;68414;53.946;27.634;2023-04-01T00:21:26;36.366665;32.083332;19.466667
77516;PMS7003;68414;53.946;27.634;2023-04-01T00:22:26;38.450001;32.016666;19.616667
77516;PMS7003;68414;53.946;27.634;2023-04-01T00:23:26;38.116665;32.616665;19.116667
77516;PMS7003;68414;53.946;27.634;2023-04-01T00:24:26;37.316666;31.833334;19.233334
77516;PMS7003;68414;53.946;27.634;2023-04-01T00:25:26;33.950001;30.600000;18.266666
77516;PMS7003;68414;53.946;27.634;2023-04-01T00:26:26;32.966667;29.533333;17.250000
77516;PMS7003;68414;53.946;27.634;2023-04-01T00:27:26;34.099998;30.183332;17.116667
77516;PMS7003;68414;53.946;27.634;2023-04-01T00:28:26;33.683334;30.950001;17.983334
77516;PMS7003;68414;53.946;27.634;2023-04-01T00:29:26;34.683334;30.950001;18.066668
77516;PMS7003;68414;53.946;27.634;2023-04-01T00:30:26;35.150002;30.866667;17.966667
77516;PMS7003;68414;53.946;27.634;2023-04-01T00:31:26;34.150002;30.933332;18.383333
77516;PMS7003;68414;53.946;27.634;2023-04-01T00:32:26;34.650002;31.033333;17.583334
77516;PMS7003;68414;53.946;27.634;2023-04-01T00:33:26;35.700001;30.683332;18.633333
77516;PMS7003;68414;53.946;27.634;2023-04-01T00:34:26;31.250000;27.733334;16.200001
77516;PMS7003;68414;53.946;27.634;2023-04-01T00:35:26;30.799999;28.549999;16.966667
77516;PMS7003;68414;53.946;27.634;2023-04-01T00:36:26;32.583332;28.883333;17.799999
77516;PMS7003;68414;53.946;27.634;2023-04-01T00:37:27;32.616665;30.116667;18.483334
77516;PMS7003;68414;53.946;27.634;2023-04-01T00:38:26;34.566666;30.533333;18.200001
77516;PMS7003;68414;53.946;27.634;2023-04-01T00:39:29;29.549999;28.333334;17.666666
77516;PMS7003;68414;53.946;27.634;2023-04-01T00:40:30;30.783333;27.799999;14.633333
77516;PMS7003;68414;53.946;27.634;2023-04-01T00:41:26;31.549999;28.566668;15.516666
77516;PMS7003;68414;53.946;27.634;2023-04-01T00:42:26;30.350000;28.683332;16.183332
77516;PMS7003;68414;53.946;27.634;2023-04-01T00:43:26;31.966667;28.133333;15.466666
77516;PMS7003;68414;53.946;27.634;2023-04-01T00:44:33;31.316668;29.049999;16.100000
77516;PMS7003;68414;53.946;27.634;2023-04-01T00:46:26;30.850000;28.283333;15.900000
77516;PMS7003;68414;53.946;27.634;2023-04-01T00:47:27;31.566668;27.633333;15.700000
77516;PMS7003;68414;53.946;27.634;2023-04-01T00:49:33;31.166666;29.316668;16.533333
77516;PMS7003;68414;53.946;27.634;2023-04-01T00:50:28;36.683334;31.783333;18.666666
77516;PMS7003;68414;53.946;27.634;2023-04-01T00:51:28;32.099998;29.633333;16.900000
77516;PMS7003;68414;53.946;27.634;2023-04-01T00:52:26;33.783333;30.066668;17.866667
77516;PMS7003;68414;53.946;27.634;2023-04-01T00:53:28;33.133335;30.400000;17.833334
77516;PMS7003;68414;53.946;27.634;2023-04-01T00:54:27;31.816668;28.966667;17.950001
77516;PMS7003;68414;53.946;27.634;2023-04-01T00:55:28;33.183334;29.450001;17.583334
77516;PMS7003;68414;53.946;27.634;2023-04-01T00:57:29;36.016666;32.200001;17.383333
77516;PMS7003;68414;53.946;27.634;2023-04-01T00:58:29;36.633335;32.266666;19.733334
77516;PMS7003;68414;53.946;27.634;2023-04-01T00:59:33;36.200001;31.683332;18.799999
77516;PMS7003;68414;53.946;27.634;2023-04-01T01:00:26;35.299999;31.250000;18.799999
77516;PMS7003;68414;53.946;27.634;2023-04-01T01:01:27;37.266666;32.233334;18.616667
77516;PMS7003;68414;53.946;27.634;2023-04-01T01:02:26;34.016666;30.883333;17.916666
77516;PMS7003;68414;53.946;27.634;2023-04-01T01:03:27;35.083332;30.950001;18.733334
77516;PMS7003;68414;53.946;27.634;2023-04-01T01:04:29;36.283333;32.000000;18.950001
77516;PMS7003;68414;53.946;27.634;2023-04-01T01:05:38;34.316666;30.549999;17.450001
77516;PMS7003;68414;53.946;27.634;2023-04-01T01:07:32;29.633333;27.799999;16.883333
77516;PMS7003;68414;53.946;27.634;2023-04-01T01:24:30;37.700001;33.133335;19.250000
77516;PMS7003;68414;53.946;27.634;2023-04-01T01:27:26;31.600000;28.799999;16.783333
77516;PMS7003;68414;53.946;27.634;2023-04-01T01:30:32;35.849998;31.799999;18.650000
77516;PMS7003;68414;53.946;27.634;2023-04-01T01:36:29;35.849998;31.049999;18.116667
77516;PMS7003;68414;53.946;27.634;2023-04-01T01:37:27;37.033333;32.283333;18.683332
77516;PMS7003;68414;53.946;27.634;2023-04-01T01:38:29;40.366665;33.400002;20.166666
77516;PMS7003;68414;53.946;27.634;2023-04-01T01:39:29;41.650002;34.150002;19.266666
77516;PMS7003;68414;53.946;27.634;2023-04-01T01:40:27;37.099998;32.333332;19.383333
77516;PMS7003;68414;53.946;27.634;2023-04-01T01:41:27;39.549999;32.616665;18.133333
77516;PMS7003;68414;53.946;27.634;2023-04-01T01:42:27;36.583332;31.783333;18.783333
77516;PMS7003;68414;53.946;27.634;2023-04-01T01:43:33;40.250000;33.316666;19.266666
77516;PMS7003;68414;53.946;27.634;2023-04-01T01:44:28;38.016666;32.566666;19.316668
77516;PMS7003;68414;53.946;27.634;2023-04-01T01:45:27;40.250000;33.316666;20.333334
77516;PMS7003;68414;53.946;27.634;2023-04-01T01:46:28;40.849998;33.566666;18.850000
77516;PMS7003;68414;53.946;27.634;2023-04-01T01:47:28;38.916668;33.533333;19.066668
77516;PMS7003;68414;53.946;27.634;2023-04-01T01:48:27;41.866665;33.799999;19.366667
77516;PMS7003;68414;53.946;27.634;2023-04-01T01:49:28;37.266666;32.000000;18.200001
77516;PMS7003;68414;53.946;27.634;2023-04-01T01:50:27;31.983334;28.783333;16.266666
77516;PMS7003;68414;53.946;27.634;2023-04-01T01:51:27;33.750000;29.183332;18.016666
77516;PMS7003;68414;53.946;27.634;2023-04-01T01:52:27;31.100000;28.250000;16.366667
77516;PMS7003;68414;53.946;27.634;2023-04-01T01:53:26;32.016666;28.350000;17.416666
77516;PMS7003;68414;53.946;27.634;2023-04-01T01:54:26;33.166668;30.000000;17.166666
77516;PMS7003;68414;53.946;27.634;2023-04-01T01:55:33;34.483334;30.533333;16.650000
77516;PMS7003;68414;53.946;27.634;2023-04-01T01:56:27;31.183332;28.583334;17.333334
77516;PMS7003;68414;53.946;27.634;2023-04-01T01:57:28;31.466667;27.766666;16.583334
77516;PMS7003;68414;53.946;27.634;2023-04-01T01:59:27;35.500000;31.566668;17.016666
77516;PMS7003;68414;53.946;27.634;2023-04-01T02:00:27;36.633335;31.916666;18.650000
77516;PMS7003;68414;53.946;27.634;2023-04-01T02:01:29;40.983334;34.549999;19.100000
77516;PMS7003;68414;53.946;27.634;2023-04-01T02:02:26;41.799999;34.049999;20.033333
77516;PMS7003;68414;53.946;27.634;2023-04-01T02:03:29;40.483334;33.616665;18.683332
77516;PMS7003;68414;53.946;27.634;2023-04-01T02:04:26;36.716667;32.299999;18.316668
77516;PMS7003;68414;53.946;27.634;2023-04-01T02:05:28;37.950001;32.133335;18.100000
77516;PMS7003;68414;53.946;27.634;2023-04-01T02:06:29;35.200001;31.016666;18.683332
77516;PMS7003;68414;53.946;27.634;2023-04-01T02:07:29;36.750000;31.416666;18.200001
77516;PMS7003;68414;53.946;27.634;2023-04-01T02:08:34;41.200001;32.150002;19.133333
77516;PMS7003;68414;53.946;27.634;2023-04-01T02:09:26;38.966667;33.716667;19.883333
77516;PMS7003;68414;53.946;27.634;2023-04-01T02:10:28;41.233334;34.799999;20.049999
77516;PMS7003;68414;53.946;27.634;2023-04-01T02:11:30;38.116665;33.049999;18.966667
77516;PMS7003;68414;53.946;27.634;2023-04-01T02:12:28;31.400000;29.083334;17.033333
77516;PMS7003;68414;53.946;27.634;2023-04-01T02:14:29;34.150002;29.900000;18.066668
77516;PMS7003;68414;53.946;27.634;2023-04-01T02:15:28;32.083332;29.233334;18.200001
77516;PMS7003;68414;53.946;27.634;2023-04-01T02:17:28;39.099998;32.683334;20.016666
77516;PMS7003;68414;53.946;27.634;2023-04-01T02:18:28;37.533333;32.433334;19.500000
77516;PMS7003;68414;53.946;27.634;2023-04-01T02:19:30;39.233334;33.116665;20.000000
77516;PMS7003;68414;53.946;27.634;2023-04-01T02:20:27;36.116665;30.433332;18.433332
77516;PMS7003;68414;53.946;27.634;2023-04-01T02:21:30;32.716667;29.400000;17.200001
77516;PMS7003;68414;53.946;27.634;2023-04-01T02:23:27;31.833334;29.366667;16.650000
77516;PMS7003;68414;53.946;27.634;2023-04-01T02:24:28;32.333332;29.450001;17.283333
77516;PMS7003;68414;53.946;27.634;2023-04-01T02:25:29;33.283333;30.299999;17.566668
77516;PMS7003;68414;53.946;27.634;2023-04-01T02:26:26;30.983334;28.150000;15.500000
77516;PMS7003;68414;53.946;27.634;2023-04-01T02:27:26;27.466667;25.116667;15.116667
77516;PMS7003;68414;53.946;27.634;2023-04-01T02:28:28;30.350000;27.666666;16.383333
77516;PMS7003;68414;53.946;27.634;2023-04-01T02:29:26;32.316666;28.950001;15.966666
77516;PMS7003;68414;53.946;27.634;2023-04-01T02:30:28;32.733334;29.466667;16.366667
77516;PMS7003;68414;53.946;27.634;2023-04-01T02:31:26;37.233334;32.616665;19.049999
77516;PMS7003;68414;53.946;27.634;2023-04-01T02:32:28;37.533333;32.049999;18.549999
77516;PMS7003;68414;53.946;27.634;2023-04-01T02:33:27;40.116665;33.333332;19.600000
77516;PMS7003;68414;53.946;27.634;2023-04-01T02:34:26;38.450001;32.983334;18.916666
77516;PMS7003;68414;53.946;27.634;2023-04-01T02:35:26;39.266666;33.433334;20.683332
77516;PMS7003;68414;53.946;27.634;2023-04-01T02:36:26;46.816666;38.216667;23.366667
77516;PMS7003;68414;53.946;27.634;2023-04-01T02:37:26;43.849998;36.866665;22.733334
77516;PMS7003;68414;53.946;27.634;2023-04-01T02:38:26;40.366665;33.883335;20.200001
77516;PMS7003;68414;53.946;27.634;2023-04-01T02:39:26;42.200001;34.533333;20.250000
77516;PMS7003;68414;53.946;27.634;2023-04-01T02:40:26;43.733334;36.066666;20.716667
77516;PMS7003;68414;53.946;27.634;2023-04-01T02:41:26;42.333332;35.500000;21.700001
77516;PMS7003;68414;53.946;27.634;2023-04-01T02:42:26;45.549999;37.400002;22.133333
77516;PMS7003;68414;53.946;27.634;2023-04-01T02:43:27;42.416668;35.750000;21.566668
77516;PMS7003;68414;53.946;27.634;2023-04-01T02:44:26;41.500000;35.083332;21.633333
77516;PMS7003;68414;53.946;27.634;2023-04-01T02:45:26;39.883335;34.200001;21.083334
77516;PMS7003;68414;53.946;27.634;2023-04-01T02:46:26;38.816666;32.816666;20.433332
77516;PMS7003;68414;53.946;27.634;2023-04-01T02:47:26;43.283333;34.866665;21.049999
77516;PMS7003;68414;53.946;27.634;2023-04-01T02:48:26;40.366665;33.849998;20.933332
77516;PMS7003;68414;53.946;27.634;2023-04-01T02:49:26;35.483334;31.483334;18.916666
77516;PMS7003;68414;53.946;27.634;2023-04-01T02:50:26;36.983334;31.549999;18.400000
77516;PMS7003;68414;53.946;27.634;2023-04-01T02:51:27;40.750000;34.516666;20.516666
77516;PMS7003;68414;53.946;27.634;2023-04-01T02:52:27;37.216667;32.299999;18.600000
77516;PMS7003;68414;53.946;27.634;2023-04-01T02:53:26;39.033333;32.416668;19.733334
77516;PMS7003;68414;53.946;27.634;2023-04-01T02:54:26;35.683334;30.983334;18.833334
77516;PMS7003;68414;53.946;27.634;2023-04-01T02:55:26;36.200001;31.450001;19.100000
77516;PMS7003;68414;53.946;27.634;2023-04-01T02:56:26;36.400002;30.900000;19.250000
77516;PMS7003;68414;53.946;27.634;2023-04-01T02:57:26;37.549999;32.533333;19.616667
77516;PMS7003;68414;53.946;27.634;2023-04-01T02:58:26;33.750000;30.650000;18.450001
77516;PMS7003;68414;53.946;27.634;2023-04-01T02:59:26;35.466667;30.183332;18.433332
77516;PMS7003;68414;53.946;27.634;2023-04-01T03:00:26;30.383333;28.716667;17.166666
77516;PMS7003;68414;53.946;27.634;2023-04-01T03:01:26;30.883333;27.666666;17.000000
77516;PMS7003;68414;53.946;27.634;2023-04-01T03:02:26;29.616667;27.533333;15.933333
77516;PMS7003;68414;53.946;27.634;2023-04-01T03:03:26;31.533333;28.533333;17.283333
77516;PMS7003;68414;53.946;27.634;2023-04-01T03:04:26;28.716667;25.633333;14.900000
77516;PMS7003;68414;53.946;27.634;2023-04-01T03:05:26;32.299999;29.516666;16.533333
77516;PMS7003;68414;53.946;27.634;2023-04-01T03:06:26;33.599998;30.116667;17.266666
77516;PMS7003;68414;53.946;27.634;2023-04-01T03:07:26;31.283333;28.766666;16.966667
77516;PMS7003;68414;53.946;27.634;2023-04-01T03:08:26;31.216667;29.000000;17.733334
77516;PMS7003;68414;53.946;27.634;2023-04-01T03:09:26;33.950001;30.400000;16.799999
77516;PMS7003;68414;53.946;27.634;2023-04-01T03:10:26;34.416668;30.049999;17.966667
77516;PMS7003;68414;53.946;27.634;2023-04-01T03:11:26;34.183334;30.200001;17.183332
77516;PMS7003;68414;53.946;27.634;2023-04-01T03:12:26;37.016666;31.983334;19.583334
77516;PMS7003;68414;53.946;27.634;2023-04-01T03:13:26;33.349998;30.299999;17.183332
77516;PMS7003;68414;53.946;27.634;2023-04-01T03:14:26;33.049999;29.816668;16.533333
77516;PMS7003;68414;53.946;27.634;2023-04-01T03:15:26;32.049999;28.683332;15.950000
77516;PMS7003;68414;53.946;27.634;2023-04-01T03:16:26;36.066666;31.816668;18.583334
77516;PMS7003;68414;53.946;27.634;2023-04-01T03:17:26;33.833332;30.700001;19.000000
77516;PMS7003;68414;53.946;27.634;2023-04-01T03:18:26;32.349998;30.150000;17.566668
77516;PMS7003;68414;53.946;27.634;2023-04-01T03:19:26;35.933334;31.416666;18.233334
77516;PMS7003;68414;53.946;27.634;2023-04-01T03:20:26;36.966667;32.466667;19.133333
77516;PMS7003;68414;53.946;27.634;2023-04-01T03:21:26;39.166668;32.700001;19.033333
77516;PMS7003;68414;53.946;27.634;2023-04-01T03:22:26;42.933334;34.166668;20.816668
77516;PMS7003;68414;53.946;27.634;2023-04-01T03:23:26;42.450001;34.783333;20.200001
77516;PMS7003;68414;53.946;27.634;2023-04-01T03:24:26;56.316666;45.116665;28.616667
77516;PMS7003;68414;53.946;27.634;2023-04-01T03:25:26;38.766666;32.400002;20.283333
77516;PMS7003;68414;53.946;27.634;2023-04-01T03:26:26;35.566666;31.566668;18.766666
77516;PMS7003;68414;53.946;27.634;2023-04-01T03:27:26;35.616665;31.016666;17.933332
77516;PMS7003;68414;53.946;27.634;2023-04-01T03:28:26;31.816668;29.150000;16.316668
77516;PMS7003;68414;53.946;27.634;2023-04-01T03:29:26;31.966667;29.666666;17.650000
77516;PMS7003;68414;53.946;27.634;2023-04-01T03:30:26;33.316666;29.516666;18.333334
77516;PMS7003;68414;53.946;27.634;2023-04-01T03:31:26;32.200001;29.700001;18.133333
77516;PMS7003;68414;53.946;27.634;2023-04-01T03:32:26;34.716667;30.383333;18.500000
77516;PMS7003;68414;53.946;27.634;2023-04-01T03:33:26;31.366667;28.450001;16.950001
77516;PMS7003;68414;53.946;27.634;2023-04-01T03:34:26;31.850000;29.200001;17.033333
77516;PMS7003;68414;53.946;27.634;2023-04-01T03:35:26;28.350000;26.033333;15.666667
77516;PMS7003;68414;53.946;27.634;2023-04-01T03:36:26;28.766666;27.500000;16.333334
77516;PMS7003;68414;53.946;27.634;2023-04-01T03:37:27;30.850000;26.816668;16.133333
77516;PMS7003;68414;53.946;27.634;2023-04-01T03:38:26;27.000000;26.066668;15.016666
77516;PMS7003;68414;53.946;27.634;2023-04-01T03:39:26;28.466667;26.350000;15.616667
77516;PMS7003;68414;53.946;27.634;2023-04-01T03:40:26;28.433332;26.450001;16.049999
77516;PMS7003;68414;53.946;27.634;2023-04-01T03:41:26;27.750000;26.333334;15.033334
77516;PMS7003;68414;53.946;27.634;2023-04-01T03:42:26;30.150000;27.683332;15.283334
77516;PMS7003;68414;53.946;27.634;2023-04-01T03:43:26;29.733334;28.016666;17.433332
77516;PMS7003;68414;53.946;27.634;2023-04-01T03:44:26;30.483334;28.433332;17.049999
77516;PMS7003;68414;53.946;27.634;2023-04-01T03:45:26;27.633333;25.666666;15.400000
77516;PMS7003;68414;53.946;27.634;2023-04-01T03:46:26;28.583334;26.766666;15.300000
77516;PMS7003;68414;53.946;27.634;2023-04-01T03:47:26;27.266666;25.100000;14.450000
77516;PMS7003;68414;53.946;27.634;2023-04-01T03:48:26;27.150000;24.683332;15.033334
77516;PMS7003;68414;53.946;27.634;2023-04-01T03:49:26;37.383335;32.950001;19.216667
77516;PMS7003;68414;53.946;27.634;2023-04-01T03:50:26;34.099998;30.816668;19.700001
77516;PMS7003;68414;53.946;27.634;2023-04-01T03:51:26;34.650002;31.233334;19.383333
77516;PMS7003;68414;53.946;27.634;2023-04-01T03:52:26;34.816666;30.483334;17.533333
77516;PMS7003;68414;53.946;27.634;2023-04-01T03:53:26;31.450001;29.483334;18.750000
77516;PMS7003;68414;53.946;27.634;2023-04-01T03:54:26;37.450001;32.066666;18.350000
77516;PMS7003;68414;53.946;27.634;2023-04-01T03:55:26;32.483334;29.233334;17.750000
77516;PMS7003;68414;53.946;27.634;2023-04-01T03:56:26;32.116665;29.816668;17.683332
77516;PMS7003;68414;53.946;27.634;2023-04-01T03:57:26;33.483334;30.233334;17.150000
77516;PMS7003;68414;53.946;27.634;2023-04-01T03:58:26;31.150000;27.916666;16.450001
77516;PMS7003;68414;53.946;27.634;2023-04-01T03:59:26;32.250000;29.850000;16.833334
77516;PMS7003;68414;53.946;27.634;2023-04-01T04:00:26;35.950001;31.016666;18.566668
77516;PMS7003;68414;53.946;27.634;2023-04-01T04:01:26;35.316666;31.783333;18.683332
77516;PMS7003;68414;53.946;27.634;2023-04-01T04:02:26;40.349998;34.333332;20.950001
77516;PMS7003;68414;53.946;27.634;2023-04-01T04:03:26;36.533333;31.450001;19.616667
77516;PMS7003;68414;53.946;27.634;2023-04-01T04:04:26;36.750000;31.200001;19.683332
77516;PMS7003;68414;53.946;27.634;2023-04-01T04:05:26;32.650002;30.000000;18.166666
77516;PMS7003;68414;53.946;27.634;2023-04-01T04:06:26;34.416668;31.100000;18.833334
77516;PMS7003;68414;53.946;27.634;2023-04-01T04:07:26;36.966667;32.900002;19.650000
77516;PMS7003;68414;53.946;27.634;2023-04-01T04:08:26;36.099998;31.416666;17.966667
77516;PMS7003;68414;53.946;27.634;2023-04-01T04:09:26;33.166668;30.033333;17.650000
77516;PMS7003;68414;53.946;27.634;2023-04-01T04:10:26;29.533333;27.733334;16.116667
77516;PMS7003;68414;53.946;27.634;2023-04-01T04:11:26;33.116665;29.450001;17.683332
77516;PMS7003;68414;53.946;27.634;2023-04-01T04:12:26;31.200001;29.016666;16.866667
77516;PMS7003;68414;53.946;27.634;2023-04-01T04:13:26;32.083332;27.866667;16.566668
77516;PMS7003;68414;53.946;27.634;2023-04-01T04:14:26;31.549999;28.549999;16.266666
77516;PMS7003;68414;53.946;27.634;2023-04-01T04:15:26;29.150000;27.933332;16.166666
77516;PMS7003;68414;53.946;27.634;2023-04-01T04:16:26;31.566668;29.600000;17.866667
77516;PMS7003;68414;53.946;27.634;2023-04-01T04:17:26;38.433334;32.750000;18.900000
77516;PMS7003;68414;53.946;27.634;2023-04-01T04:18:26;39.099998;32.500000;19.633333
77516;PMS7003;68414;53.946;27.634;2023-04-01T04:19:26;37.316666;31.883333;17.983334
77516;PMS7003;68414;53.946;27.634;2023-04-01T04:20:26;34.516666;30.283333;17.299999
77516;PMS7003;68414;53.946;27.634;2023-04-01T04:21:26;37.183334;32.016666;19.466667
77516;PMS7003;68414;53.946;27.634;2023-04-01T04:22:26;35.733334;32.383335;19.416666
77516;PMS7003;68414;53.946;27.634;2023-04-01T04:23:26;31.400000;29.250000;17.266666
77516;PMS7003;68414;53.946;27.634;2023-04-01T04:24:26;33.766666;30.450001;19.000000
77516;PMS7003;68414;53.946;27.634;2023-04-01T04:25:26;34.483334;30.883333;18.733334
77516;PMS7003;68414;53.946;27.634;2023-04-01T04:26:26;31.183332;28.833334;17.350000
77516;PMS7003;68414;53.946;27.634;2023-04-01T04:27:26;31.783333;28.516666;17.733334
77516;PMS7003;68414;53.946;27.634;2023-04-01T04:28:28;34.700001;31.116667;17.716667
77516;PMS7003;68414;53.946;27.634;2023-04-01T04:29:27;30.150000;28.200001;18.016666
77516;PMS7003;68414;53.946;27.634;2023-04-01T04:30:26;33.650002;30.383333;18.416666
77516;PMS7003;68414;53.946;27.634;2023-04-01T04:31:26;31.316668;29.166666;17.450001
77516;PMS7003;68414;53.946;27.634;2023-04-01T04:32:26;29.516666;28.250000;16.933332
77516;PMS7003;68414;53.946;27.634;2023-04-01T04:33:26;37.933334;31.950001;18.933332
77516;PMS7003;68414;53.946;27.634;2023-04-01T04:34:26;32.383335;29.500000;18.250000
77516;PMS7003;68414;53.946;27.634;2023-04-01T04:35:26;29.383333;27.283333;17.133333
77516;PMS7003;68414;53.946;27.634;2023-04-01T04:36:26;29.216667;26.850000;17.116667
77516;PMS7003;68414;53.946;27.634;2023-04-01T04:37:26;30.500000;27.166666;16.366667
77516;PMS7003;68414;53.946;27.634;2023-04-01T04:38:26;27.799999;26.049999;15.183333
77516;PMS7003;68414;53.946;27.634;2023-04-01T04:39:26;27.816668;26.483334;15.016666
77516;PMS7003;68414;53.946;27.634;2023-04-01T04:40:26;27.549999;26.133333;15.783334
77516;PMS7003;68414;53.946;27.634;2023-04-01T04:41:26;27.850000;26.516666;15.683333
77516;PMS7003;68414;53.946;27.634;2023-04-01T04:42:26;25.783333;24.783333;15.033334
77516;PMS7003;68414;53.946;27.634;2023-04-01T04:43:26;25.116667;23.950001;15.100000
77516;PMS7003;68414;53.946;27.634;2023-04-01T04:44:26;26.683332;25.549999;15.533334
77516;PMS7003;68414;53.946;27.634;2023-04-01T04:45:26;27.733334;25.549999;15.666667
77516;PMS7003;68414;53.946;27.634;2023-04-01T04:46:26;25.650000;24.216667;15.433333
77516;PMS7003;68414;53.946;27.634;2023-04-01T04:47:26;28.566668;25.700001;15.866667
77516;PMS7003;68414;53.946;27.634;2023-04-01T04:48:27;26.900000;24.666666;14.666667
77516;PMS7003;68414;53.946;27.634;2023-04-01T04:49:26;27.049999;25.766666;15.616667
77516;PMS7003;68414;53.946;27.634;2023-04-01T04:50:26;28.200001;26.183332;16.000000
77516;PMS7003;68414;53.946;27.634;2023-04-01T04:51:26;33.833332;30.266666;18.933332
77516;PMS7003;68414;53.946;27.634;2023-04-01T04:52:26;34.500000;31.233334;19.299999
77516;PMS7003;68414;53.946;27.634;2023-04-01T04:53:29;34.716667;31.333334;19.833334
77516;PMS7003;68414;53.946;27.634;2023-04-01T04:54:26;33.450001;30.783333;18.183332
77516;PMS7003;68414;53.946;27.634;2023-04-01T04:55:26;35.366665;30.966667;19.900000
77516;PMS7003;68414;53.946;27.634;2023-04-01T04:56:26;34.733334;30.500000;19.366667
77516;PMS7003;68414;53.946;27.634;2023-04-01T04:57:29;34.166668;30.916666;19.066668
77516;PMS7003;68414;53.946;27.634;2023-04-01T04:58:27;40.316666;34.150002;21.283333
77516;PMS7003;68414;53.946;27.634;2023-04-01T04:59:27;33.183334;29.666666;18.250000
77516;PMS7003;68414;53.946;27.634;2023-04-01T05:00:28;31.600000;28.049999;17.083334
77516;PMS7003;68414;53.946;27.634;2023-04-01T05:01:26;34.650002;31.016666;18.933332
77516;PMS7003;68414;53.946;27.634;2023-04-01T05:02:27;32.416668;29.650000;17.916666
77516;PMS7003;68414;53.946;27.634;2023-04-01T05:03:26;28.133333;26.549999;16.783333
77516;PMS7003;68414;53.946;27.634;2023-04-01T05:04:26;31.100000;29.150000;17.566668
77516;PMS7003;68414;53.946;27.634;2023-04-01T05:05:26;27.700001;26.716667;17.166666
77516;PMS7003;68414;53.946;27.634;2023-04-01T05:06:27;29.350000;27.616667;17.700001
77516;PMS7003;68414;53.946;27.634;2023-04-01T05:07:28;29.366667;26.933332;16.850000
77516;PMS7003;68414;53.946;27.634;2023-04-01T05:08:26;25.816668;24.233334;14.750000
77516;PMS7003;68414;53.946;27.634;2023-04-01T05:09:28;28.400000;26.333334;15.016666
77516;PMS7003;68414;53.946;27.634;2023-04-01T05:10:30;26.866667;23.350000;14.166667
77516;PMS7003;68414;53.946;27.634;2023-04-01T05:11:26;30.500000;28.150000;16.600000
77516;PMS7003;68414;53.946;27.634;2023-04-01T05:12:26;31.933332;28.716667;16.549999
77516;PMS7003;68414;53.946;27.634;2023-04-01T05:13:27;30.916666;27.583334;16.500000
77516;PMS7003;68414;53.946;27.634;2023-04-01T05:14:29;28.583334;27.416666;16.183332
77516;PMS7003;68414;53.946;27.634;2023-04-01T05:15:26;35.200001;30.450001;17.600000
77516;PMS7003;68414;53.946;27.634;2023-04-01T05:16:26;31.983334;27.483334;17.500000
77516;PMS7003;68414;53.946;27.634;2023-04-01T05:17:26;29.866667;28.683332;17.900000